sensor_id;sensor_type;location;lat;lon;timestamp;P1;durP1;ratioP1;P2;durP2;ratioP2
7883;SDS011;3987;51.458;7.238;2022-09-09T00:04:45;2.77;;;0.60;;
7883;SDS011;3987;51.458;7.238;2022-09-09T00:15:40;1.60;;;0.70;;
7883;SDS011;3987;51.458;7.238;2022-09-09T00:21:03;2.20;;;0.67;;
7883;SDS011;3987;51.458;7.238;2022-09-09T00:26:04;0.60;;;0.60;;
7883;SDS011;3987;51.458;7.238;2022-09-09T00:28:50;0.50;;;0.50;;
7883;SDS011;3987;51.458;7.238;2022-09-09T00:31:21;1.40;;;0.70;;
7883;SDS011;3987;51.458;7.238;2022-09-09T00:33:48;0.77;;;0.50;;
7883;SDS011;3987;51.458;7.238;2022-09-09T00:36:16;1.40;;;0.70;;
7883;SDS011;3987;51.458;7.238;2022-09-09T00:38:51;1.23;;;0.47;;
7883;SDS011;3987;51.458;7.238;2022-09-09T00:41:20;1.10;;;0.70;;
7883;SDS011;3987;51.458;7.238;2022-09-09T00:43:57;1.17;;;0.70;;
7883;SDS011;3987;51.458;7.238;2022-09-09T00:46:32;0.53;;;0.50;;
7883;SDS011;3987;51.458;7.238;2022-09-09T00:49:21;1.03;;;0.40;;
7883;SDS011;3987;51.458;7.238;2022-09-09T00:52:08;0.67;;;0.50;;
7883;SDS011;3987;51.458;7.238;2022-09-09T00:54:51;1.37;;;0.70;;
7883;SDS011;3987;51.458;7.238;2022-09-09T00:57:32;0.57;;;0.57;;
7883;SDS011;3987;51.458;7.238;2022-09-09T01:02:53;0.70;;;0.70;;
7883;SDS011;3987;51.458;7.238;2022-09-09T01:08:00;0.83;;;0.77;;
7883;SDS011;3987;51.458;7.238;2022-09-09T01:13:26;1.00;;;1.00;;
7883;SDS011;3987;51.458;7.238;2022-09-09T01:15:57;2.80;;;1.20;;
7883;SDS011;3987;51.458;7.238;2022-09-09T01:18:26;1.60;;;1.30;;
7883;SDS011;3987;51.458;7.238;2022-09-09T01:26:58;2.00;;;1.90;;
7883;SDS011;3987;51.458;7.238;2022-09-09T01:29:26;2.13;;;2.03;;
7883;SDS011;3987;51.458;7.238;2022-09-09T01:31:53;2.73;;;2.53;;
7883;SDS011;3987;51.458;7.238;2022-09-09T01:34:27;2.60;;;2.50;;
7883;SDS011;3987;51.458;7.238;2022-09-09T01:37:02;2.40;;;2.20;;
7883;SDS011;3987;51.458;7.238;2022-09-09T01:39:35;2.33;;;2.23;;
7883;SDS011;3987;51.458;7.238;2022-09-09T01:42:07;2.60;;;2.50;;
7883;SDS011;3987;51.458;7.238;2022-09-09T01:44:34;2.97;;;2.77;;
7883;SDS011;3987;51.458;7.238;2022-09-09T01:47:01;3.30;;;3.17;;
7883;SDS011;3987;51.458;7.238;2022-09-09T01:49:27;3.20;;;3.00;;
7883;SDS011;3987;51.458;7.238;2022-09-09T01:51:54;2.93;;;2.83;;
7883;SDS011;3987;51.458;7.238;2022-09-09T01:54:28;3.43;;;3.33;;
7883;SDS011;3987;51.458;7.238;2022-09-09T01:57:08;3.63;;;3.10;;
7883;SDS011;3987;51.458;7.238;2022-09-09T02:02:44;3.00;;;2.90;;
7883;SDS011;3987;51.458;7.238;2022-09-09T02:08:15;3.77;;;3.00;;
7883;SDS011;3987;51.458;7.238;2022-09-09T02:13:43;2.97;;;2.70;;
7883;SDS011;3987;51.458;7.238;2022-09-09T02:21:45;4.87;;;3.27;;
7883;SDS011;3987;51.458;7.238;2022-09-09T02:24:11;2.43;;;2.33;;
7883;SDS011;3987;51.458;7.238;2022-09-09T02:26:45;3.47;;;2.77;;
7883;SDS011;3987;51.458;7.238;2022-09-09T02:29:22;2.93;;;2.70;;
7883;SDS011;3987;51.458;7.238;2022-09-09T02:31:50;3.63;;;2.23;;
7883;SDS011;3987;51.458;7.238;2022-09-09T02:34:22;2.83;;;2.73;;
7883;SDS011;3987;51.458;7.238;2022-09-09T02:36:49;2.83;;;2.73;;
7883;SDS011;3987;51.458;7.238;2022-09-09T02:39:16;2.47;;;2.37;;
7883;SDS011;3987;51.458;7.238;2022-09-09T02:41:41;2.63;;;2.53;;
7883;SDS011;3987;51.458;7.238;2022-09-09T02:44:11;3.13;;;2.40;;
7883;SDS011;3987;51.458;7.238;2022-09-09T02:52:09;2.77;;;2.50;;
7883;SDS011;3987;51.458;7.238;2022-09-09T02:54:43;2.63;;;2.07;;
7883;SDS011;3987;51.458;7.238;2022-09-09T02:59:47;3.00;;;2.43;;
7883;SDS011;3987;51.458;7.238;2022-09-09T03:02:13;2.17;;;2.00;;
7883;SDS011;3987;51.458;7.238;2022-09-09T03:04:40;3.17;;;2.27;;
7883;SDS011;3987;51.458;7.238;2022-09-09T03:07:10;2.03;;;1.77;;
7883;SDS011;3987;51.458;7.238;2022-09-09T03:09:36;2.00;;;1.90;;
7883;SDS011;3987;51.458;7.238;2022-09-09T03:12:02;2.07;;;1.90;;
7883;SDS011;3987;51.458;7.238;2022-09-09T03:14:30;3.80;;;1.90;;
7883;SDS011;3987;51.458;7.238;2022-09-09T03:16:56;2.00;;;1.83;;
7883;SDS011;3987;51.458;7.238;2022-09-09T03:19:25;1.43;;;1.40;;
7883;SDS011;3987;51.458;7.238;2022-09-09T03:21:52;1.87;;;1.77;;
7883;SDS011;3987;51.458;7.238;2022-09-09T03:24:18;1.47;;;1.37;;
7883;SDS011;3987;51.458;7.238;2022-09-09T03:26:44;2.87;;;1.50;;
7883;SDS011;3987;51.458;7.238;2022-09-09T03:29:12;1.67;;;1.57;;
7883;SDS011;3987;51.458;7.238;2022-09-09T03:31:39;1.30;;;1.20;;
7883;SDS011;3987;51.458;7.238;2022-09-09T03:34:04;1.20;;;1.20;;
7883;SDS011;3987;51.458;7.238;2022-09-09T03:36:32;1.83;;;1.17;;
7883;SDS011;3987;51.458;7.238;2022-09-09T03:38:58;1.97;;;1.53;;
7883;SDS011;3987;51.458;7.238;2022-09-09T03:41:27;4.27;;;1.17;;
7883;SDS011;3987;51.458;7.238;2022-09-09T03:43:53;1.37;;;1.37;;
7883;SDS011;3987;51.458;7.238;2022-09-09T03:46:19;3.03;;;1.20;;
7883;SDS011;3987;51.458;7.238;2022-09-09T03:48:46;3.67;;;1.10;;
7883;SDS011;3987;51.458;7.238;2022-09-09T03:51:12;2.00;;;1.40;;
7883;SDS011;3987;51.458;7.238;2022-09-09T03:53:37;2.13;;;1.47;;
7883;SDS011;3987;51.458;7.238;2022-09-09T03:56:03;4.20;;;2.30;;
7883;SDS011;3987;51.458;7.238;2022-09-09T03:58:31;1.33;;;1.20;;
7883;SDS011;3987;51.458;7.238;2022-09-09T04:03:31;1.43;;;1.33;;
7883;SDS011;3987;51.458;7.238;2022-09-09T04:05:56;3.80;;;1.60;;
7883;SDS011;3987;51.458;7.238;2022-09-09T04:08:25;1.60;;;1.40;;
7883;SDS011;3987;51.458;7.238;2022-09-09T04:10:52;1.50;;;1.40;;
7883;SDS011;3987;51.458;7.238;2022-09-09T04:13:18;2.20;;;1.27;;
7883;SDS011;3987;51.458;7.238;2022-09-09T04:15:52;2.67;;;1.30;;
7883;SDS011;3987;51.458;7.238;2022-09-09T04:18:19;1.70;;;1.60;;
7883;SDS011;3987;51.458;7.238;2022-09-09T04:20:48;2.10;;;1.80;;
7883;SDS011;3987;51.458;7.238;2022-09-09T04:23:16;2.17;;;1.30;;
7883;SDS011;3987;51.458;7.238;2022-09-09T04:25:44;1.90;;;1.37;;
7883;SDS011;3987;51.458;7.238;2022-09-09T04:28:13;2.63;;;1.50;;
7883;SDS011;3987;51.458;7.238;2022-09-09T04:30:39;1.60;;;1.50;;
7883;SDS011;3987;51.458;7.238;2022-09-09T04:33:06;4.10;;;1.77;;
7883;SDS011;3987;51.458;7.238;2022-09-09T04:35:32;1.83;;;1.60;;
7883;SDS011;3987;51.458;7.238;2022-09-09T04:37:58;5.60;;;1.70;;
7883;SDS011;3987;51.458;7.238;2022-09-09T04:40:26;2.30;;;1.27;;
7883;SDS011;3987;51.458;7.238;2022-09-09T04:42:52;1.97;;;1.87;;
7883;SDS011;3987;51.458;7.238;2022-09-09T04:45:17;2.30;;;1.77;;
7883;SDS011;3987;51.458;7.238;2022-09-09T04:47:44;3.47;;;1.90;;
7883;SDS011;3987;51.458;7.238;2022-09-09T04:50:10;2.13;;;1.83;;
7883;SDS011;3987;51.458;7.238;2022-09-09T04:52:37;1.47;;;1.47;;
7883;SDS011;3987;51.458;7.238;2022-09-09T04:55:02;2.00;;;1.90;;
7883;SDS011;3987;51.458;7.238;2022-09-09T04:57:28;2.13;;;1.90;;
7883;SDS011;3987;51.458;7.238;2022-09-09T04:59:54;5.30;;;2.20;;
7883;SDS011;3987;51.458;7.238;2022-09-09T05:02:20;6.87;;;2.40;;
7883;SDS011;3987;51.458;7.238;2022-09-09T05:04:45;3.57;;;1.67;;
7883;SDS011;3987;51.458;7.238;2022-09-09T05:07:12;3.67;;;1.90;;
7883;SDS011;3987;51.458;7.238;2022-09-09T05:09:38;4.17;;;2.30;;
7883;SDS011;3987;51.458;7.238;2022-09-09T05:12:04;2.20;;;2.10;;
7883;SDS011;3987;51.458;7.238;2022-09-09T05:14:33;1.90;;;1.80;;
7883;SDS011;3987;51.458;7.238;2022-09-09T05:17:00;1.97;;;1.77;;
7883;SDS011;3987;51.458;7.238;2022-09-09T05:19:26;1.77;;;1.67;;
7883;SDS011;3987;51.458;7.238;2022-09-09T05:21:52;1.97;;;1.67;;
7883;SDS011;3987;51.458;7.238;2022-09-09T05:24:23;2.00;;;1.90;;
7883;SDS011;3987;51.458;7.238;2022-09-09T05:26:51;2.97;;;1.93;;
7883;SDS011;3987;51.458;7.238;2022-09-09T05:29:17;2.07;;;1.87;;
7883;SDS011;3987;51.458;7.238;2022-09-09T05:31:44;2.23;;;1.80;;
7883;SDS011;3987;51.458;7.238;2022-09-09T05:34:15;2.13;;;2.03;;
7883;SDS011;3987;51.458;7.238;2022-09-09T05:36:40;2.13;;;1.83;;
7883;SDS011;3987;51.458;7.238;2022-09-09T05:39:06;5.40;;;1.90;;
7883;SDS011;3987;51.458;7.238;2022-09-09T05:41:33;2.53;;;2.27;;
7883;SDS011;3987;51.458;7.238;2022-09-09T05:44:01;2.30;;;1.70;;
7883;SDS011;3987;51.458;7.238;2022-09-09T05:46:27;5.90;;;2.07;;
7883;SDS011;3987;51.458;7.238;2022-09-09T05:48:54;2.63;;;2.43;;
7883;SDS011;3987;51.458;7.238;2022-09-09T05:51:25;3.97;;;1.90;;
7883;SDS011;3987;51.458;7.238;2022-09-09T05:53:55;3.27;;;2.10;;
7883;SDS011;3987;51.458;7.238;2022-09-09T05:56:24;2.13;;;1.90;;
7883;SDS011;3987;51.458;7.238;2022-09-09T05:58:51;1.83;;;1.73;;
7883;SDS011;3987;51.458;7.238;2022-09-09T06:01:27;1.73;;;1.63;;
7883;SDS011;3987;51.458;7.238;2022-09-09T06:03:56;2.93;;;1.80;;
7883;SDS011;3987;51.458;7.238;2022-09-09T06:06:24;2.77;;;1.63;;
7883;SDS011;3987;51.458;7.238;2022-09-09T06:08:56;4.57;;;2.03;;
7883;SDS011;3987;51.458;7.238;2022-09-09T06:11:28;3.10;;;2.10;;
7883;SDS011;3987;51.458;7.238;2022-09-09T06:13:57;3.97;;;1.37;;
7883;SDS011;3987;51.458;7.238;2022-09-09T06:16:24;3.20;;;1.80;;
7883;SDS011;3987;51.458;7.238;2022-09-09T06:18:54;4.00;;;1.60;;
7883;SDS011;3987;51.458;7.238;2022-09-09T06:21:23;2.50;;;1.70;;
7883;SDS011;3987;51.458;7.238;2022-09-09T06:23:50;3.13;;;1.77;;
7883;SDS011;3987;51.458;7.238;2022-09-09T06:28:50;1.83;;;1.73;;
7883;SDS011;3987;51.458;7.238;2022-09-09T06:31:19;4.37;;;1.80;;
7883;SDS011;3987;51.458;7.238;2022-09-09T06:33:47;2.10;;;1.80;;
7883;SDS011;3987;51.458;7.238;2022-09-09T06:36:18;2.83;;;1.57;;
7883;SDS011;3987;51.458;7.238;2022-09-09T06:38:45;1.70;;;1.60;;
7883;SDS011;3987;51.458;7.238;2022-09-09T06:41:13;3.33;;;1.43;;
7883;SDS011;3987;51.458;7.238;2022-09-09T06:43:41;3.03;;;1.57;;
7883;SDS011;3987;51.458;7.238;2022-09-09T06:48:36;3.43;;;1.60;;
7883;SDS011;3987;51.458;7.238;2022-09-09T06:51:06;1.87;;;1.40;;
7883;SDS011;3987;51.458;7.238;2022-09-09T06:53:35;2.57;;;1.60;;
7883;SDS011;3987;51.458;7.238;2022-09-09T06:58:36;1.80;;;1.33;;
7883;SDS011;3987;51.458;7.238;2022-09-09T07:01:04;4.97;;;1.33;;
7883;SDS011;3987;51.458;7.238;2022-09-09T07:03:33;3.47;;;1.47;;
7883;SDS011;3987;51.458;7.238;2022-09-09T07:06:00;1.60;;;1.00;;
7883;SDS011;3987;51.458;7.238;2022-09-09T07:08:27;2.27;;;1.30;;
7883;SDS011;3987;51.458;7.238;2022-09-09T07:10:53;3.43;;;1.23;;
7883;SDS011;3987;51.458;7.238;2022-09-09T07:13:28;1.53;;;0.80;;
7883;SDS011;3987;51.458;7.238;2022-09-09T07:15:54;2.23;;;0.97;;
7883;SDS011;3987;51.458;7.238;2022-09-09T07:18:20;2.50;;;1.03;;
7883;SDS011;3987;51.458;7.238;2022-09-09T07:20:52;2.87;;;1.00;;
7883;SDS011;3987;51.458;7.238;2022-09-09T07:23:19;0.90;;;0.90;;
7883;SDS011;3987;51.458;7.238;2022-09-09T07:25:45;4.37;;;1.33;;
7883;SDS011;3987;51.458;7.238;2022-09-09T07:28:11;1.20;;;0.67;;
7883;SDS011;3987;51.458;7.238;2022-09-09T07:30:36;3.07;;;1.20;;
7883;SDS011;3987;51.458;7.238;2022-09-09T07:33:02;4.63;;;0.97;;
7883;SDS011;3987;51.458;7.238;2022-09-09T07:35:28;2.10;;;0.80;;
7883;SDS011;3987;51.458;7.238;2022-09-09T07:37:54;2.27;;;0.90;;
7883;SDS011;3987;51.458;7.238;2022-09-09T07:40:19;1.17;;;0.93;;
7883;SDS011;3987;51.458;7.238;2022-09-09T07:42:46;1.33;;;1.20;;
7883;SDS011;3987;51.458;7.238;2022-09-09T07:45:12;0.70;;;0.70;;
7883;SDS011;3987;51.458;7.238;2022-09-09T07:47:39;1.77;;;0.87;;
7883;SDS011;3987;51.458;7.238;2022-09-09T07:50:08;2.50;;;0.80;;
7883;SDS011;3987;51.458;7.238;2022-09-09T07:52:35;1.67;;;0.73;;
7883;SDS011;3987;51.458;7.238;2022-09-09T07:55:05;1.27;;;0.90;;
7883;SDS011;3987;51.458;7.238;2022-09-09T07:57:31;2.00;;;0.70;;
7883;SDS011;3987;51.458;7.238;2022-09-09T07:59:57;2.53;;;1.03;;
7883;SDS011;3987;51.458;7.238;2022-09-09T08:02:23;0.67;;;0.67;;
7883;SDS011;3987;51.458;7.238;2022-09-09T08:04:50;0.87;;;0.67;;
7883;SDS011;3987;51.458;7.238;2022-09-09T08:07:17;1.77;;;0.60;;
7883;SDS011;3987;51.458;7.238;2022-09-09T08:09:50;1.70;;;0.87;;
7883;SDS011;3987;51.458;7.238;2022-09-09T08:12:20;1.37;;;0.80;;
7883;SDS011;3987;51.458;7.238;2022-09-09T08:14:45;2.37;;;0.90;;
7883;SDS011;3987;51.458;7.238;2022-09-09T08:17:11;3.93;;;0.73;;
7883;SDS011;3987;51.458;7.238;2022-09-09T08:19:37;1.17;;;0.77;;
7883;SDS011;3987;51.458;7.238;2022-09-09T08:22:07;2.13;;;0.70;;
7883;SDS011;3987;51.458;7.238;2022-09-09T08:24:34;2.00;;;0.77;;
7883;SDS011;3987;51.458;7.238;2022-09-09T08:27:00;0.90;;;0.70;;
7883;SDS011;3987;51.458;7.238;2022-09-09T08:29:26;1.50;;;0.83;;
7883;SDS011;3987;51.458;7.238;2022-09-09T08:31:54;1.43;;;0.93;;
7883;SDS011;3987;51.458;7.238;2022-09-09T08:34:22;0.63;;;0.60;;
7883;SDS011;3987;51.458;7.238;2022-09-09T08:36:49;5.47;;;0.90;;
7883;SDS011;3987;51.458;7.238;2022-09-09T08:39:19;1.80;;;0.90;;
7883;SDS011;3987;51.458;7.238;2022-09-09T08:52:49;2.37;;;1.07;;
7883;SDS011;3987;51.458;7.238;2022-09-09T08:58:18;2.43;;;1.10;;
7883;SDS011;3987;51.458;7.238;2022-09-09T09:08:51;1.20;;;1.00;;
7883;SDS011;3987;51.458;7.238;2022-09-09T09:11:49;1.77;;;0.83;;
7883;SDS011;3987;51.458;7.238;2022-09-09T09:14:18;1.83;;;0.90;;
7883;SDS011;3987;51.458;7.238;2022-09-09T09:19:27;1.30;;;0.80;;
7883;SDS011;3987;51.458;7.238;2022-09-09T09:24:44;1.77;;;1.00;;
7883;SDS011;3987;51.458;7.238;2022-09-09T09:27:15;1.90;;;1.17;;
7883;SDS011;3987;51.458;7.238;2022-09-09T09:29:49;2.33;;;1.00;;
7883;SDS011;3987;51.458;7.238;2022-09-09T09:32:17;2.00;;;0.90;;
7883;SDS011;3987;51.458;7.238;2022-09-09T09:34:48;2.77;;;1.10;;
7883;SDS011;3987;51.458;7.238;2022-09-09T09:37:22;4.60;;;0.93;;
7883;SDS011;3987;51.458;7.238;2022-09-09T09:39:52;1.70;;;0.87;;
7883;SDS011;3987;51.458;7.238;2022-09-09T09:42:18;0.60;;;0.60;;
7883;SDS011;3987;51.458;7.238;2022-09-09T09:44:46;5.40;;;1.10;;
7883;SDS011;3987;51.458;7.238;2022-09-09T09:47:22;1.97;;;1.03;;
7883;SDS011;3987;51.458;7.238;2022-09-09T09:50:15;3.30;;;0.80;;
7883;SDS011;3987;51.458;7.238;2022-09-09T09:52:42;1.37;;;0.80;;
7883;SDS011;3987;51.458;7.238;2022-09-09T09:55:12;3.27;;;1.03;;
7883;SDS011;3987;51.458;7.238;2022-09-09T09:57:39;1.83;;;0.60;;
7883;SDS011;3987;51.458;7.238;2022-09-09T10:02:40;2.67;;;0.83;;
7883;SDS011;3987;51.458;7.238;2022-09-09T10:07:45;2.10;;;0.80;;
7883;SDS011;3987;51.458;7.238;2022-09-09T10:10:22;4.00;;;1.00;;
7883;SDS011;3987;51.458;7.238;2022-09-09T10:15:48;4.70;;;1.17;;
7883;SDS011;3987;51.458;7.238;2022-09-09T10:21:13;2.73;;;1.00;;
7883;SDS011;3987;51.458;7.238;2022-09-09T10:42:46;3.37;;;0.67;;
7883;SDS011;3987;51.458;7.238;2022-09-09T10:45:18;2.13;;;0.43;;
7883;SDS011;3987;51.458;7.238;2022-09-09T10:47:50;0.63;;;0.60;;
7883;SDS011;3987;51.458;7.238;2022-09-09T10:53:21;3.17;;;0.67;;
7883;SDS011;3987;51.458;7.238;2022-09-09T10:56:01;0.83;;;0.50;;
7883;SDS011;3987;51.458;7.238;2022-09-09T10:58:44;2.07;;;0.70;;
7883;SDS011;3987;51.458;7.238;2022-09-09T11:01:27;1.50;;;0.50;;
7883;SDS011;3987;51.458;7.238;2022-09-09T11:04:05;1.80;;;0.60;;
7883;SDS011;3987;51.458;7.238;2022-09-09T11:06:57;0.87;;;0.50;;
7883;SDS011;3987;51.458;7.238;2022-09-09T11:09:30;0.37;;;0.37;;
7883;SDS011;3987;51.458;7.238;2022-09-09T11:11:58;1.00;;;0.40;;
7883;SDS011;3987;51.458;7.238;2022-09-09T11:14:37;1.50;;;0.50;;
7883;SDS011;3987;51.458;7.238;2022-09-09T11:17:08;0.50;;;0.43;;
7883;SDS011;3987;51.458;7.238;2022-09-09T11:24:52;1.00;;;0.53;;
7883;SDS011;3987;51.458;7.238;2022-09-09T11:27:26;1.40;;;0.60;;
7883;SDS011;3987;51.458;7.238;2022-09-09T11:38:45;2.70;;;0.60;;
7883;SDS011;3987;51.458;7.238;2022-09-09T11:41:18;0.80;;;0.40;;
7883;SDS011;3987;51.458;7.238;2022-09-09T11:43:46;1.87;;;0.30;;
7883;SDS011;3987;51.458;7.238;2022-09-09T11:46:14;0.37;;;0.37;;
7883;SDS011;3987;51.458;7.238;2022-09-09T11:48:43;0.63;;;0.60;;
7883;SDS011;3987;51.458;7.238;2022-09-09T11:56:30;1.47;;;0.53;;
7883;SDS011;3987;51.458;7.238;2022-09-09T11:59:02;0.37;;;0.37;;
7883;SDS011;3987;51.458;7.238;2022-09-09T12:04:04;1.73;;;0.50;;
7883;SDS011;3987;51.458;7.238;2022-09-09T12:06:31;4.47;;;0.47;;
7883;SDS011;3987;51.458;7.238;2022-09-09T12:09:07;2.10;;;0.40;;
7883;SDS011;3987;51.458;7.238;2022-09-09T12:11:36;0.60;;;0.50;;
7883;SDS011;3987;51.458;7.238;2022-09-09T12:14:02;0.73;;;0.50;;
7883;SDS011;3987;51.458;7.238;2022-09-09T12:16:34;0.47;;;0.43;;
7883;SDS011;3987;51.458;7.238;2022-09-09T12:19:03;1.53;;;0.50;;
7883;SDS011;3987;51.458;7.238;2022-09-09T12:21:41;1.33;;;0.57;;
7883;SDS011;3987;51.458;7.238;2022-09-09T12:24:11;2.30;;;0.70;;
7883;SDS011;3987;51.458;7.238;2022-09-09T12:26:41;1.13;;;0.60;;
7883;SDS011;3987;51.458;7.238;2022-09-09T12:34:30;2.27;;;0.70;;
7883;SDS011;3987;51.458;7.238;2022-09-09T12:39:58;0.93;;;0.47;;
7883;SDS011;3987;51.458;7.238;2022-09-09T12:42:25;0.77;;;0.40;;
7883;SDS011;3987;51.458;7.238;2022-09-09T12:44:51;1.60;;;0.60;;
7883;SDS011;3987;51.458;7.238;2022-09-09T12:47:22;0.50;;;0.50;;
7883;SDS011;3987;51.458;7.238;2022-09-09T12:49:50;0.40;;;0.40;;
7883;SDS011;3987;51.458;7.238;2022-09-09T12:52:25;2.00;;;0.70;;
7883;SDS011;3987;51.458;7.238;2022-09-09T12:54:55;2.13;;;0.50;;
7883;SDS011;3987;51.458;7.238;2022-09-09T12:57:21;1.03;;;0.53;;
7883;SDS011;3987;51.458;7.238;2022-09-09T12:59:50;2.00;;;0.60;;
7883;SDS011;3987;51.458;7.238;2022-09-09T13:04:41;2.30;;;0.57;;
7883;SDS011;3987;51.458;7.238;2022-09-09T13:07:07;2.57;;;0.80;;
7883;SDS011;3987;51.458;7.238;2022-09-09T13:09:35;0.53;;;0.50;;
7883;SDS011;3987;51.458;7.238;2022-09-09T13:12:00;1.03;;;0.43;;
7883;SDS011;3987;51.458;7.238;2022-09-09T13:14:29;1.03;;;0.57;;
7883;SDS011;3987;51.458;7.238;2022-09-09T13:17:01;1.23;;;0.30;;
7883;SDS011;3987;51.458;7.238;2022-09-09T13:19:29;1.43;;;0.50;;
7883;SDS011;3987;51.458;7.238;2022-09-09T13:21:57;3.70;;;0.40;;
7883;SDS011;3987;51.458;7.238;2022-09-09T13:24:28;2.87;;;0.30;;
7883;SDS011;3987;51.458;7.238;2022-09-09T13:27:01;1.93;;;0.50;;
7883;SDS011;3987;51.458;7.238;2022-09-09T13:29:50;0.73;;;0.50;;
7883;SDS011;3987;51.458;7.238;2022-09-09T13:32:20;1.37;;;0.70;;
7883;SDS011;3987;51.458;7.238;2022-09-09T13:34:50;1.10;;;0.73;;
7883;SDS011;3987;51.458;7.238;2022-09-09T13:37:23;0.67;;;0.43;;
7883;SDS011;3987;51.458;7.238;2022-09-09T13:39:54;0.40;;;0.40;;
7883;SDS011;3987;51.458;7.238;2022-09-09T13:42:22;1.27;;;0.43;;
7883;SDS011;3987;51.458;7.238;2022-09-09T13:44:52;1.60;;;0.80;;
7883;SDS011;3987;51.458;7.238;2022-09-09T13:47:19;1.40;;;0.50;;
7883;SDS011;3987;51.458;7.238;2022-09-09T13:49:46;0.60;;;0.50;;
7883;SDS011;3987;51.458;7.238;2022-09-09T13:52:12;1.03;;;0.63;;
7883;SDS011;3987;51.458;7.238;2022-09-09T13:54:39;0.80;;;0.80;;
7883;SDS011;3987;51.458;7.238;2022-09-09T13:57:05;2.40;;;0.90;;
7883;SDS011;3987;51.458;7.238;2022-09-09T13:59:31;1.73;;;0.90;;
7883;SDS011;3987;51.458;7.238;2022-09-09T14:01:57;1.77;;;0.97;;
7883;SDS011;3987;51.458;7.238;2022-09-09T14:04:23;1.50;;;0.80;;
7883;SDS011;3987;51.458;7.238;2022-09-09T14:06:49;1.67;;;0.90;;
7883;SDS011;3987;51.458;7.238;2022-09-09T14:09:15;1.40;;;0.50;;
7883;SDS011;3987;51.458;7.238;2022-09-09T14:11:41;1.00;;;0.70;;
7883;SDS011;3987;51.458;7.238;2022-09-09T14:14:07;0.60;;;0.60;;
7883;SDS011;3987;51.458;7.238;2022-09-09T14:16:33;0.50;;;0.50;;
7883;SDS011;3987;51.458;7.238;2022-09-09T14:18:59;1.70;;;0.57;;
7883;SDS011;3987;51.458;7.238;2022-09-09T14:21:24;1.20;;;0.57;;
7883;SDS011;3987;51.458;7.238;2022-09-09T14:23:50;2.10;;;0.70;;
7883;SDS011;3987;51.458;7.238;2022-09-09T14:26:17;0.93;;;0.50;;
7883;SDS011;3987;51.458;7.238;2022-09-09T14:28:44;1.07;;;0.20;;
7883;SDS011;3987;51.458;7.238;2022-09-09T14:31:11;0.90;;;0.50;;
7883;SDS011;3987;51.458;7.238;2022-09-09T14:33:38;0.73;;;0.50;;
7883;SDS011;3987;51.458;7.238;2022-09-09T14:36:03;1.43;;;0.30;;
7883;SDS011;3987;51.458;7.238;2022-09-09T14:38:29;0.63;;;0.63;;
7883;SDS011;3987;51.458;7.238;2022-09-09T14:40:56;0.93;;;0.57;;
7883;SDS011;3987;51.458;7.238;2022-09-09T14:43:23;1.60;;;0.73;;
7883;SDS011;3987;51.458;7.238;2022-09-09T14:45:48;0.50;;;0.50;;
7883;SDS011;3987;51.458;7.238;2022-09-09T14:48:16;0.73;;;0.70;;
7883;SDS011;3987;51.458;7.238;2022-09-09T14:50:41;0.70;;;0.70;;
7883;SDS011;3987;51.458;7.238;2022-09-09T14:53:07;2.70;;;1.17;;
7883;SDS011;3987;51.458;7.238;2022-09-09T14:55:34;1.90;;;1.10;;
7883;SDS011;3987;51.458;7.238;2022-09-09T14:57:59;1.00;;;1.00;;
7883;SDS011;3987;51.458;7.238;2022-09-09T15:00:25;1.07;;;1.00;;
7883;SDS011;3987;51.458;7.238;2022-09-09T15:02:54;0.87;;;0.87;;
7883;SDS011;3987;51.458;7.238;2022-09-09T15:05:19;0.80;;;0.80;;
7883;SDS011;3987;51.458;7.238;2022-09-09T15:07:45;2.33;;;1.30;;
7883;SDS011;3987;51.458;7.238;2022-09-09T15:10:11;0.70;;;0.70;;
7883;SDS011;3987;51.458;7.238;2022-09-09T15:12:37;0.80;;;0.80;;
7883;SDS011;3987;51.458;7.238;2022-09-09T15:15:03;3.93;;;1.20;;
7883;SDS011;3987;51.458;7.238;2022-09-09T15:17:29;1.07;;;1.03;;
7883;SDS011;3987;51.458;7.238;2022-09-09T15:19:55;5.03;;;1.37;;
7883;SDS011;3987;51.458;7.238;2022-09-09T15:22:20;1.70;;;1.57;;
7883;SDS011;3987;51.458;7.238;2022-09-09T15:24:46;2.03;;;0.80;;
7883;SDS011;3987;51.458;7.238;2022-09-09T15:27:12;1.50;;;0.90;;
7883;SDS011;3987;51.458;7.238;2022-09-09T15:29:39;0.73;;;0.70;;
7883;SDS011;3987;51.458;7.238;2022-09-09T15:32:05;1.07;;;0.40;;
7883;SDS011;3987;51.458;7.238;2022-09-09T15:34:31;0.37;;;0.30;;
7883;SDS011;3987;51.458;7.238;2022-09-09T15:36:56;0.77;;;0.60;;
7883;SDS011;3987;51.458;7.238;2022-09-09T15:39:22;0.80;;;0.60;;
7883;SDS011;3987;51.458;7.238;2022-09-09T15:41:48;1.40;;;0.40;;
7883;SDS011;3987;51.458;7.238;2022-09-09T15:44:14;1.33;;;0.50;;
7883;SDS011;3987;51.458;7.238;2022-09-09T15:46:41;0.47;;;0.47;;
7883;SDS011;3987;51.458;7.238;2022-09-09T15:49:10;0.50;;;0.43;;
7883;SDS011;3987;51.458;7.238;2022-09-09T15:51:39;0.20;;;0.20;;
7883;SDS011;3987;51.458;7.238;2022-09-09T15:54:07;0.23;;;0.23;;
7883;SDS011;3987;51.458;7.238;2022-09-09T15:56:33;0.93;;;0.40;;
7883;SDS011;3987;51.458;7.238;2022-09-09T15:58:59;0.40;;;0.30;;
7883;SDS011;3987;51.458;7.238;2022-09-09T16:01:26;0.33;;;0.33;;
7883;SDS011;3987;51.458;7.238;2022-09-09T16:03:52;0.50;;;0.40;;
7883;SDS011;3987;51.458;7.238;2022-09-09T16:06:18;0.40;;;0.33;;
7883;SDS011;3987;51.458;7.238;2022-09-09T16:08:49;0.30;;;0.27;;
7883;SDS011;3987;51.458;7.238;2022-09-09T16:11:16;1.13;;;0.30;;
7883;SDS011;3987;51.458;7.238;2022-09-09T16:13:45;0.33;;;0.33;;
7883;SDS011;3987;51.458;7.238;2022-09-09T16:16:12;0.77;;;0.50;;
7883;SDS011;3987;51.458;7.238;2022-09-09T16:18:39;0.40;;;0.30;;
7883;SDS011;3987;51.458;7.238;2022-09-09T16:21:06;0.90;;;0.50;;
7883;SDS011;3987;51.458;7.238;2022-09-09T16:23:33;0.67;;;0.30;;
7883;SDS011;3987;51.458;7.238;2022-09-09T16:25:59;0.33;;;0.30;;
7883;SDS011;3987;51.458;7.238;2022-09-09T16:28:25;0.77;;;0.30;;
7883;SDS011;3987;51.458;7.238;2022-09-09T16:30:50;1.63;;;0.30;;
7883;SDS011;3987;51.458;7.238;2022-09-09T16:33:16;0.30;;;0.30;;
7883;SDS011;3987;51.458;7.238;2022-09-09T16:35:42;0.40;;;0.40;;
7883;SDS011;3987;51.458;7.238;2022-09-09T16:38:08;1.23;;;0.70;;
7883;SDS011;3987;51.458;7.238;2022-09-09T16:40:34;0.40;;;0.40;;
7883;SDS011;3987;51.458;7.238;2022-09-09T16:43:00;0.80;;;0.70;;
7883;SDS011;3987;51.458;7.238;2022-09-09T16:45:26;0.80;;;0.80;;
7883;SDS011;3987;51.458;7.238;2022-09-09T16:47:51;0.67;;;0.67;;
7883;SDS011;3987;51.458;7.238;2022-09-09T16:50:17;1.77;;;0.70;;
7883;SDS011;3987;51.458;7.238;2022-09-09T16:52:42;0.63;;;0.57;;
7883;SDS011;3987;51.458;7.238;2022-09-09T16:55:07;0.70;;;0.70;;
7883;SDS011;3987;51.458;7.238;2022-09-09T16:57:34;1.27;;;0.90;;
7883;SDS011;3987;51.458;7.238;2022-09-09T16:59:59;0.57;;;0.57;;
7883;SDS011;3987;51.458;7.238;2022-09-09T17:02:26;0.93;;;0.93;;
7883;SDS011;3987;51.458;7.238;2022-09-09T17:04:51;0.63;;;0.63;;
7883;SDS011;3987;51.458;7.238;2022-09-09T17:07:17;0.77;;;0.77;;
7883;SDS011;3987;51.458;7.238;2022-09-09T17:09:44;0.63;;;0.50;;
7883;SDS011;3987;51.458;7.238;2022-09-09T17:12:10;1.20;;;0.70;;
7883;SDS011;3987;51.458;7.238;2022-09-09T17:14:37;0.87;;;0.80;;
7883;SDS011;3987;51.458;7.238;2022-09-09T17:17:02;0.90;;;0.90;;
7883;SDS011;3987;51.458;7.238;2022-09-09T17:19:29;1.87;;;0.70;;
7883;SDS011;3987;51.458;7.238;2022-09-09T17:21:55;0.60;;;0.60;;
7883;SDS011;3987;51.458;7.238;2022-09-09T17:24:22;1.27;;;0.60;;
7883;SDS011;3987;51.458;7.238;2022-09-09T17:26:48;1.40;;;0.60;;
7883;SDS011;3987;51.458;7.238;2022-09-09T17:29:13;0.80;;;0.80;;
7883;SDS011;3987;51.458;7.238;2022-09-09T17:31:39;1.00;;;0.70;;
7883;SDS011;3987;51.458;7.238;2022-09-09T17:34:05;0.70;;;0.70;;
7883;SDS011;3987;51.458;7.238;2022-09-09T17:36:33;1.37;;;1.00;;
7883;SDS011;3987;51.458;7.238;2022-09-09T17:38:59;1.13;;;1.10;;
7883;SDS011;3987;51.458;7.238;2022-09-09T17:41:29;0.87;;;0.87;;
7883;SDS011;3987;51.458;7.238;2022-09-09T17:43:56;0.90;;;0.77;;
7883;SDS011;3987;51.458;7.238;2022-09-09T17:46:27;0.77;;;0.77;;
7883;SDS011;3987;51.458;7.238;2022-09-09T17:48:58;2.10;;;1.07;;
7883;SDS011;3987;51.458;7.238;2022-09-09T17:51:25;1.13;;;1.00;;
7883;SDS011;3987;51.458;7.238;2022-09-09T17:53:56;3.07;;;0.90;;
7883;SDS011;3987;51.458;7.238;2022-09-09T17:56:26;1.33;;;1.10;;
7883;SDS011;3987;51.458;7.238;2022-09-09T17:58:53;1.33;;;1.00;;
7883;SDS011;3987;51.458;7.238;2022-09-09T18:01:26;1.23;;;1.23;;